sensor_id;sensor_type;location;lat;lon;timestamp;P1;durP1;ratioP1;P2;durP2;ratioP2
18499;SDS011;9379;52.134;11.576;2022-12-10T00:01:42;22.63;;;12.88;;
18499;SDS011;9379;52.134;11.576;2022-12-10T00:04:10;24.45;;;13.98;;
18499;SDS011;9379;52.134;11.576;2022-12-10T00:06:38;17.75;;;11.20;;
18499;SDS011;9379;52.134;11.576;2022-12-10T00:09:07;15.68;;;12.07;;
18499;SDS011;9379;52.134;11.576;2022-12-10T00:11:39;19.67;;;14.10;;
18499;SDS011;9379;52.134;11.576;2022-12-10T00:14:07;14.65;;;11.77;;
18499;SDS011;9379;52.134;11.576;2022-12-10T00:16:35;18.13;;;13.10;;
18499;SDS011;9379;52.134;11.576;2022-12-10T00:19:04;16.10;;;9.98;;
18499;SDS011;9379;52.134;11.576;2022-12-10T00:21:32;17.27;;;11.65;;
18499;SDS011;9379;52.134;11.576;2022-12-10T00:24:01;15.98;;;9.25;;
18499;SDS011;9379;52.134;11.576;2022-12-10T00:26:29;15.80;;;11.10;;
18499;SDS011;9379;52.134;11.576;2022-12-10T00:28:57;19.55;;;12.95;;
18499;SDS011;9379;52.134;11.576;2022-12-10T00:31:27;16.15;;;12.18;;
18499;SDS011;9379;52.134;11.576;2022-12-10T00:33:57;21.90;;;13.47;;
18499;SDS011;9379;52.134;11.576;2022-12-10T00:36:27;13.70;;;10.98;;
18499;SDS011;9379;52.134;11.576;2022-12-10T00:38:56;19.02;;;13.15;;
18499;SDS011;9379;52.134;11.576;2022-12-10T00:41:23;17.63;;;12.05;;
18499;SDS011;9379;52.134;11.576;2022-12-10T00:43:51;17.73;;;12.63;;
18499;SDS011;9379;52.134;11.576;2022-12-10T00:46:18;17.75;;;12.18;;
18499;SDS011;9379;52.134;11.576;2022-12-10T00:48:45;14.32;;;11.07;;
18499;SDS011;9379;52.134;11.576;2022-12-10T00:51:16;20.65;;;14.55;;
18499;SDS011;9379;52.134;11.576;2022-12-10T00:53:46;13.93;;;10.50;;
18499;SDS011;9379;52.134;11.576;2022-12-10T00:56:16;19.58;;;14.50;;
18499;SDS011;9379;52.134;11.576;2022-12-10T00:58:45;16.92;;;13.32;;
18499;SDS011;9379;52.134;11.576;2022-12-10T01:01:15;16.42;;;10.90;;
18499;SDS011;9379;52.134;11.576;2022-12-10T01:03:43;12.52;;;9.30;;
18499;SDS011;9379;52.134;11.576;2022-12-10T01:06:12;11.00;;;9.60;;
18499;SDS011;9379;52.134;11.576;2022-12-10T01:08:41;13.35;;;9.75;;
18499;SDS011;9379;52.134;11.576;2022-12-10T01:11:10;12.65;;;10.27;;
18499;SDS011;9379;52.134;11.576;2022-12-10T01:13:39;14.80;;;10.05;;
18499;SDS011;9379;52.134;11.576;2022-12-10T01:16:07;15.40;;;10.68;;
18499;SDS011;9379;52.134;11.576;2022-12-10T01:18:37;12.52;;;9.77;;
18499;SDS011;9379;52.134;11.576;2022-12-10T01:21:05;16.05;;;10.55;;
18499;SDS011;9379;52.134;11.576;2022-12-10T01:23:34;13.80;;;10.40;;
18499;SDS011;9379;52.134;11.576;2022-12-10T01:26:03;15.27;;;12.50;;
18499;SDS011;9379;52.134;11.576;2022-12-10T01:28:34;17.63;;;12.68;;
18499;SDS011;9379;52.134;11.576;2022-12-10T01:31:03;15.15;;;12.25;;
18499;SDS011;9379;52.134;11.576;2022-12-10T01:33:32;13.50;;;11.65;;
18499;SDS011;9379;52.134;11.576;2022-12-10T01:36:01;16.27;;;9.68;;
18499;SDS011;9379;52.134;11.576;2022-12-10T01:38:29;14.40;;;11.55;;
18499;SDS011;9379;52.134;11.576;2022-12-10T01:40:57;15.95;;;10.88;;
18499;SDS011;9379;52.134;11.576;2022-12-10T01:43:24;18.58;;;11.70;;
18499;SDS011;9379;52.134;11.576;2022-12-10T01:45:53;24.58;;;14.85;;
18499;SDS011;9379;52.134;11.576;2022-12-10T01:48:20;22.60;;;14.30;;
18499;SDS011;9379;52.134;11.576;2022-12-10T01:50:47;17.33;;;12.68;;
18499;SDS011;9379;52.134;11.576;2022-12-10T01:53:15;23.75;;;13.48;;
18499;SDS011;9379;52.134;11.576;2022-12-10T01:55:45;22.13;;;14.13;;
18499;SDS011;9379;52.134;11.576;2022-12-10T01:58:15;14.27;;;10.95;;
18499;SDS011;9379;52.134;11.576;2022-12-10T02:00:54;22.92;;;14.68;;
18499;SDS011;9379;52.134;11.576;2022-12-10T02:03:33;19.52;;;12.70;;
18499;SDS011;9379;52.134;11.576;2022-12-10T02:08:58;23.88;;;15.38;;
18499;SDS011;9379;52.134;11.576;2022-12-10T02:11:33;23.27;;;15.25;;
18499;SDS011;9379;52.134;11.576;2022-12-10T02:14:08;25.25;;;18.52;;
18499;SDS011;9379;52.134;11.576;2022-12-10T02:16:44;25.25;;;16.33;;
18499;SDS011;9379;52.134;11.576;2022-12-10T02:19:18;22.95;;;15.27;;
18499;SDS011;9379;52.134;11.576;2022-12-10T02:21:51;27.77;;;16.20;;
18499;SDS011;9379;52.134;11.576;2022-12-10T02:24:20;23.67;;;14.57;;
18499;SDS011;9379;52.134;11.576;2022-12-10T02:26:55;19.25;;;13.90;;
18499;SDS011;9379;52.134;11.576;2022-12-10T02:29:31;29.83;;;20.80;;
18499;SDS011;9379;52.134;11.576;2022-12-10T02:32:02;32.88;;;20.48;;
18499;SDS011;9379;52.134;11.576;2022-12-10T02:34:33;38.15;;;21.17;;
18499;SDS011;9379;52.134;11.576;2022-12-10T02:37:04;32.60;;;20.95;;
18499;SDS011;9379;52.134;11.576;2022-12-10T02:39:38;27.48;;;18.27;;
18499;SDS011;9379;52.134;11.576;2022-12-10T02:42:09;25.92;;;17.60;;
18499;SDS011;9379;52.134;11.576;2022-12-10T02:44:41;27.52;;;17.08;;
18499;SDS011;9379;52.134;11.576;2022-12-10T02:47:11;24.45;;;15.95;;
18499;SDS011;9379;52.134;11.576;2022-12-10T02:49:39;34.17;;;19.30;;
18499;SDS011;9379;52.134;11.576;2022-12-10T02:52:08;27.05;;;18.20;;
18499;SDS011;9379;52.134;11.576;2022-12-10T02:54:40;26.15;;;15.77;;
18499;SDS011;9379;52.134;11.576;2022-12-10T02:57:18;27.60;;;16.65;;
18499;SDS011;9379;52.134;11.576;2022-12-10T03:00:08;30.92;;;17.60;;
18499;SDS011;9379;52.134;11.576;2022-12-10T03:05:45;29.30;;;19.77;;
18499;SDS011;9379;52.134;11.576;2022-12-10T03:08:22;27.02;;;15.68;;
18499;SDS011;9379;52.134;11.576;2022-12-10T03:10:55;23.00;;;14.98;;
18499;SDS011;9379;52.134;11.576;2022-12-10T03:13:27;19.38;;;14.32;;
18499;SDS011;9379;52.134;11.576;2022-12-10T03:16:02;26.23;;;15.85;;
18499;SDS011;9379;52.134;11.576;2022-12-10T03:18:31;20.05;;;13.10;;
18499;SDS011;9379;52.134;11.576;2022-12-10T03:21:03;20.13;;;13.77;;
18499;SDS011;9379;52.134;11.576;2022-12-10T03:23:33;19.83;;;13.73;;
18499;SDS011;9379;52.134;11.576;2022-12-10T03:26:04;18.35;;;13.30;;
18499;SDS011;9379;52.134;11.576;2022-12-10T03:28:34;21.30;;;13.63;;
18499;SDS011;9379;52.134;11.576;2022-12-10T03:31:07;15.57;;;11.82;;
18499;SDS011;9379;52.134;11.576;2022-12-10T03:33:36;16.35;;;11.60;;
18499;SDS011;9379;52.134;11.576;2022-12-10T03:36:05;19.25;;;13.18;;
18499;SDS011;9379;52.134;11.576;2022-12-10T03:38:33;28.77;;;15.63;;
18499;SDS011;9379;52.134;11.576;2022-12-10T03:41:02;23.42;;;17.23;;
18499;SDS011;9379;52.134;11.576;2022-12-10T03:43:29;20.15;;;15.25;;
18499;SDS011;9379;52.134;11.576;2022-12-10T03:45:57;21.77;;;14.68;;
18499;SDS011;9379;52.134;11.576;2022-12-10T03:48:25;19.23;;;14.77;;
18499;SDS011;9379;52.134;11.576;2022-12-10T03:50:53;15.32;;;13.00;;
18499;SDS011;9379;52.134;11.576;2022-12-10T03:53:22;20.23;;;13.20;;
18499;SDS011;9379;52.134;11.576;2022-12-10T03:55:49;19.40;;;13.07;;
18499;SDS011;9379;52.134;11.576;2022-12-10T03:58:19;19.30;;;14.68;;
18499;SDS011;9379;52.134;11.576;2022-12-10T04:00:46;24.65;;;16.45;;
18499;SDS011;9379;52.134;11.576;2022-12-10T04:03:13;22.05;;;16.88;;
18499;SDS011;9379;52.134;11.576;2022-12-10T04:05:42;19.98;;;12.05;;
18499;SDS011;9379;52.134;11.576;2022-12-10T04:08:10;18.02;;;12.18;;
18499;SDS011;9379;52.134;11.576;2022-12-10T04:10:37;18.92;;;15.50;;
18499;SDS011;9379;52.134;11.576;2022-12-10T04:13:05;30.67;;;18.13;;
18499;SDS011;9379;52.134;11.576;2022-12-10T04:15:48;23.98;;;15.65;;
18499;SDS011;9379;52.134;11.576;2022-12-10T04:18:33;23.60;;;16.77;;
18499;SDS011;9379;52.134;11.576;2022-12-10T04:21:01;19.67;;;14.90;;
18499;SDS011;9379;52.134;11.576;2022-12-10T04:23:45;20.80;;;13.68;;
18499;SDS011;9379;52.134;11.576;2022-12-10T04:26:29;19.85;;;12.77;;
18499;SDS011;9379;52.134;11.576;2022-12-10T04:29:14;20.30;;;14.07;;
18499;SDS011;9379;52.134;11.576;2022-12-10T04:31:40;18.58;;;15.55;;
18499;SDS011;9379;52.134;11.576;2022-12-10T04:34:07;23.77;;;15.18;;
18499;SDS011;9379;52.134;11.576;2022-12-10T04:36:35;24.98;;;16.35;;
18499;SDS011;9379;52.134;11.576;2022-12-10T04:39:02;17.67;;;14.13;;
18499;SDS011;9379;52.134;11.576;2022-12-10T04:41:30;23.83;;;14.60;;
18499;SDS011;9379;52.134;11.576;2022-12-10T04:43:56;18.85;;;12.88;;
18499;SDS011;9379;52.134;11.576;2022-12-10T04:46:23;22.58;;;13.82;;
18499;SDS011;9379;52.134;11.576;2022-12-10T04:48:50;20.30;;;15.02;;
18499;SDS011;9379;52.134;11.576;2022-12-10T04:51:17;24.42;;;16.50;;
18499;SDS011;9379;52.134;11.576;2022-12-10T04:53:45;21.10;;;14.25;;
18499;SDS011;9379;52.134;11.576;2022-12-10T04:56:12;24.92;;;15.18;;
18499;SDS011;9379;52.134;11.576;2022-12-10T04:58:39;18.08;;;14.18;;
18499;SDS011;9379;52.134;11.576;2022-12-10T05:01:06;17.15;;;12.57;;
18499;SDS011;9379;52.134;11.576;2022-12-10T05:03:34;18.42;;;13.00;;
18499;SDS011;9379;52.134;11.576;2022-12-10T05:06:02;20.13;;;14.80;;
18499;SDS011;9379;52.134;11.576;2022-12-10T05:08:29;23.17;;;15.23;;
18499;SDS011;9379;52.134;11.576;2022-12-10T05:11:01;18.02;;;13.27;;
18499;SDS011;9379;52.134;11.576;2022-12-10T05:13:28;17.95;;;12.10;;
18499;SDS011;9379;52.134;11.576;2022-12-10T05:15:56;17.45;;;13.93;;
18499;SDS011;9379;52.134;11.576;2022-12-10T05:18:24;15.93;;;12.30;;
18499;SDS011;9379;52.134;11.576;2022-12-10T05:20:50;22.90;;;15.45;;
18499;SDS011;9379;52.134;11.576;2022-12-10T05:23:17;17.35;;;14.10;;
18499;SDS011;9379;52.134;11.576;2022-12-10T05:26:00;18.52;;;14.30;;
18499;SDS011;9379;52.134;11.576;2022-12-10T05:28:28;20.52;;;13.50;;
18499;SDS011;9379;52.134;11.576;2022-12-10T05:30:55;22.83;;;13.07;;
18499;SDS011;9379;52.134;11.576;2022-12-10T05:33:23;18.38;;;12.77;;
18499;SDS011;9379;52.134;11.576;2022-12-10T05:35:53;19.05;;;12.82;;
18499;SDS011;9379;52.134;11.576;2022-12-10T05:38:22;24.58;;;15.23;;
18499;SDS011;9379;52.134;11.576;2022-12-10T05:40:48;16.55;;;11.32;;
18499;SDS011;9379;52.134;11.576;2022-12-10T05:43:17;19.38;;;11.88;;
18499;SDS011;9379;52.134;11.576;2022-12-10T05:45:44;20.00;;;13.73;;
18499;SDS011;9379;52.134;11.576;2022-12-10T05:48:11;16.38;;;12.05;;
18499;SDS011;9379;52.134;11.576;2022-12-10T05:50:40;16.55;;;10.98;;
18499;SDS011;9379;52.134;11.576;2022-12-10T05:53:07;21.95;;;14.07;;
18499;SDS011;9379;52.134;11.576;2022-12-10T05:55:34;14.32;;;11.40;;
18499;SDS011;9379;52.134;11.576;2022-12-10T05:58:01;18.70;;;11.68;;
18499;SDS011;9379;52.134;11.576;2022-12-10T06:00:29;17.90;;;12.63;;
18499;SDS011;9379;52.134;11.576;2022-12-10T06:02:56;17.90;;;12.68;;
18499;SDS011;9379;52.134;11.576;2022-12-10T06:05:23;19.73;;;13.40;;
18499;SDS011;9379;52.134;11.576;2022-12-10T06:07:50;25.10;;;13.07;;
18499;SDS011;9379;52.134;11.576;2022-12-10T06:10:18;21.35;;;11.32;;
18499;SDS011;9379;52.134;11.576;2022-12-10T06:12:44;21.52;;;10.68;;
18499;SDS011;9379;52.134;11.576;2022-12-10T06:15:11;16.15;;;12.55;;
18499;SDS011;9379;52.134;11.576;2022-12-10T06:17:39;15.20;;;10.80;;
18499;SDS011;9379;52.134;11.576;2022-12-10T06:20:06;15.70;;;11.57;;
18499;SDS011;9379;52.134;11.576;2022-12-10T06:22:34;19.38;;;12.38;;
18499;SDS011;9379;52.134;11.576;2022-12-10T06:25:01;20.90;;;14.00;;
18499;SDS011;9379;52.134;11.576;2022-12-10T06:27:29;25.75;;;16.27;;
18499;SDS011;9379;52.134;11.576;2022-12-10T06:29:56;17.63;;;13.02;;
18499;SDS011;9379;52.134;11.576;2022-12-10T06:32:23;19.55;;;12.35;;
18499;SDS011;9379;52.134;11.576;2022-12-10T06:34:52;18.55;;;12.75;;
18499;SDS011;9379;52.134;11.576;2022-12-10T06:37:18;18.83;;;14.25;;
18499;SDS011;9379;52.134;11.576;2022-12-10T06:39:45;22.70;;;15.55;;
18499;SDS011;9379;52.134;11.576;2022-12-10T06:42:12;18.85;;;14.27;;
18499;SDS011;9379;52.134;11.576;2022-12-10T06:44:39;20.48;;;14.65;;
18499;SDS011;9379;52.134;11.576;2022-12-10T06:47:06;23.98;;;14.70;;
18499;SDS011;9379;52.134;11.576;2022-12-10T06:49:33;26.85;;;14.55;;
18499;SDS011;9379;52.134;11.576;2022-12-10T06:52:01;24.20;;;13.60;;
18499;SDS011;9379;52.134;11.576;2022-12-10T06:54:29;26.83;;;16.58;;
18499;SDS011;9379;52.134;11.576;2022-12-10T06:56:56;26.27;;;15.32;;
18499;SDS011;9379;52.134;11.576;2022-12-10T06:59:23;23.40;;;15.68;;
18499;SDS011;9379;52.134;11.576;2022-12-10T07:01:50;21.02;;;13.52;;
18499;SDS011;9379;52.134;11.576;2022-12-10T07:04:17;25.55;;;15.18;;
18499;SDS011;9379;52.134;11.576;2022-12-10T07:06:44;21.55;;;12.82;;
18499;SDS011;9379;52.134;11.576;2022-12-10T07:09:12;23.30;;;13.98;;
18499;SDS011;9379;52.134;11.576;2022-12-10T07:11:39;16.60;;;11.35;;
18499;SDS011;9379;52.134;11.576;2022-12-10T07:14:06;22.05;;;14.05;;
18499;SDS011;9379;52.134;11.576;2022-12-10T07:16:33;15.23;;;11.00;;
18499;SDS011;9379;52.134;11.576;2022-12-10T07:19:00;16.55;;;13.15;;
18499;SDS011;9379;52.134;11.576;2022-12-10T07:21:28;19.98;;;12.52;;
18499;SDS011;9379;52.134;11.576;2022-12-10T07:23:57;22.20;;;15.68;;
18499;SDS011;9379;52.134;11.576;2022-12-10T07:26:28;24.27;;;13.60;;
18499;SDS011;9379;52.134;11.576;2022-12-10T07:28:57;19.85;;;13.25;;
18499;SDS011;9379;52.134;11.576;2022-12-10T07:31:25;18.77;;;13.98;;
18499;SDS011;9379;52.134;11.576;2022-12-10T07:33:52;27.17;;;16.05;;
18499;SDS011;9379;52.134;11.576;2022-12-10T07:36:21;21.98;;;13.63;;
18499;SDS011;9379;52.134;11.576;2022-12-10T07:38:48;23.45;;;14.65;;
18499;SDS011;9379;52.134;11.576;2022-12-10T07:41:15;21.38;;;12.80;;
18499;SDS011;9379;52.134;11.576;2022-12-10T07:43:44;18.90;;;13.10;;
18499;SDS011;9379;52.134;11.576;2022-12-10T07:46:12;24.52;;;14.40;;
18499;SDS011;9379;52.134;11.576;2022-12-10T07:48:41;14.43;;;10.77;;
18499;SDS011;9379;52.134;11.576;2022-12-10T07:51:09;16.65;;;11.63;;
18499;SDS011;9379;52.134;11.576;2022-12-10T07:53:37;16.98;;;10.20;;
18499;SDS011;9379;52.134;11.576;2022-12-10T07:56:04;15.60;;;10.80;;
18499;SDS011;9379;52.134;11.576;2022-12-10T07:58:31;12.30;;;9.85;;
18499;SDS011;9379;52.134;11.576;2022-12-10T08:01:04;21.95;;;13.52;;
18499;SDS011;9379;52.134;11.576;2022-12-10T08:03:32;17.98;;;13.25;;
18499;SDS011;9379;52.134;11.576;2022-12-10T08:06:02;14.50;;;11.50;;
18499;SDS011;9379;52.134;11.576;2022-12-10T08:08:29;20.63;;;11.85;;
18499;SDS011;9379;52.134;11.576;2022-12-10T08:10:58;16.33;;;13.40;;
18499;SDS011;9379;52.134;11.576;2022-12-10T08:13:25;18.80;;;12.23;;
18499;SDS011;9379;52.134;11.576;2022-12-10T08:15:52;17.25;;;11.80;;
18499;SDS011;9379;52.134;11.576;2022-12-10T08:18:20;16.13;;;12.77;;
18499;SDS011;9379;52.134;11.576;2022-12-10T08:20:47;14.90;;;12.10;;
18499;SDS011;9379;52.134;11.576;2022-12-10T08:23:14;12.55;;;10.00;;
18499;SDS011;9379;52.134;11.576;2022-12-10T08:25:40;19.42;;;13.82;;
18499;SDS011;9379;52.134;11.576;2022-12-10T08:28:07;17.38;;;12.48;;
18499;SDS011;9379;52.134;11.576;2022-12-10T08:30:34;12.52;;;11.13;;
18499;SDS011;9379;52.134;11.576;2022-12-10T08:33:01;15.38;;;12.18;;
18499;SDS011;9379;52.134;11.576;2022-12-10T08:35:29;28.23;;;14.23;;
18499;SDS011;9379;52.134;11.576;2022-12-10T08:37:56;21.75;;;14.32;;
18499;SDS011;9379;52.134;11.576;2022-12-10T08:40:23;17.92;;;11.75;;
18499;SDS011;9379;52.134;11.576;2022-12-10T08:42:51;20.58;;;12.60;;
18499;SDS011;9379;52.134;11.576;2022-12-10T08:45:18;14.80;;;11.20;;
18499;SDS011;9379;52.134;11.576;2022-12-10T08:47:44;14.18;;;10.65;;
18499;SDS011;9379;52.134;11.576;2022-12-10T08:50:11;16.48;;;11.27;;
18499;SDS011;9379;52.134;11.576;2022-12-10T08:52:39;16.42;;;9.65;;
18499;SDS011;9379;52.134;11.576;2022-12-10T08:55:07;20.40;;;11.93;;
18499;SDS011;9379;52.134;11.576;2022-12-10T08:57:34;20.48;;;12.57;;
18499;SDS011;9379;52.134;11.576;2022-12-10T09:00:01;20.35;;;14.23;;
18499;SDS011;9379;52.134;11.576;2022-12-10T09:02:29;22.20;;;14.82;;
18499;SDS011;9379;52.134;11.576;2022-12-10T09:04:56;17.05;;;12.00;;
18499;SDS011;9379;52.134;11.576;2022-12-10T09:07:22;15.73;;;11.15;;
18499;SDS011;9379;52.134;11.576;2022-12-10T09:09:50;14.65;;;10.73;;
18499;SDS011;9379;52.134;11.576;2022-12-10T09:12:17;16.00;;;10.70;;
18499;SDS011;9379;52.134;11.576;2022-12-10T09:14:44;14.52;;;9.98;;
18499;SDS011;9379;52.134;11.576;2022-12-10T09:17:11;12.68;;;9.85;;
18499;SDS011;9379;52.134;11.576;2022-12-10T09:19:38;17.23;;;11.90;;
18499;SDS011;9379;52.134;11.576;2022-12-10T09:22:04;19.05;;;14.05;;
18499;SDS011;9379;52.134;11.576;2022-12-10T09:24:31;20.45;;;13.20;;
18499;SDS011;9379;52.134;11.576;2022-12-10T09:27:00;18.83;;;13.05;;
18499;SDS011;9379;52.134;11.576;2022-12-10T09:29:28;24.00;;;15.13;;
18499;SDS011;9379;52.134;11.576;2022-12-10T09:31:55;18.67;;;13.52;;
18499;SDS011;9379;52.134;11.576;2022-12-10T09:34:22;18.10;;;12.65;;
18499;SDS011;9379;52.134;11.576;2022-12-10T09:36:49;15.57;;;11.95;;
18499;SDS011;9379;52.134;11.576;2022-12-10T09:39:16;18.33;;;12.45;;
18499;SDS011;9379;52.134;11.576;2022-12-10T09:41:47;17.30;;;13.38;;
18499;SDS011;9379;52.134;11.576;2022-12-10T09:44:29;14.80;;;12.02;;
18499;SDS011;9379;52.134;11.576;2022-12-10T09:47:05;16.35;;;11.80;;
18499;SDS011;9379;52.134;11.576;2022-12-10T09:49:38;12.55;;;10.43;;
18499;SDS011;9379;52.134;11.576;2022-12-10T09:52:16;14.13;;;8.93;;
18499;SDS011;9379;52.134;11.576;2022-12-10T09:54:47;18.60;;;11.85;;
18499;SDS011;9379;52.134;11.576;2022-12-10T09:57:19;18.30;;;11.50;;
18499;SDS011;9379;52.134;11.576;2022-12-10T09:59:50;16.15;;;11.50;;
18499;SDS011;9379;52.134;11.576;2022-12-10T10:02:20;22.65;;;13.95;;
18499;SDS011;9379;52.134;11.576;2022-12-10T10:04:49;17.50;;;13.15;;
18499;SDS011;9379;52.134;11.576;2022-12-10T10:07:19;15.93;;;11.25;;
18499;SDS011;9379;52.134;11.576;2022-12-10T10:09:47;15.45;;;11.30;;
18499;SDS011;9379;52.134;11.576;2022-12-10T10:12:15;14.55;;;12.27;;
18499;SDS011;9379;52.134;11.576;2022-12-10T10:14:43;13.10;;;10.15;;
18499;SDS011;9379;52.134;11.576;2022-12-10T10:17:13;16.00;;;10.98;;
18499;SDS011;9379;52.134;11.576;2022-12-10T10:19:45;16.95;;;10.95;;
18499;SDS011;9379;52.134;11.576;2022-12-10T10:22:14;15.07;;;10.73;;
18499;SDS011;9379;52.134;11.576;2022-12-10T10:24:42;14.57;;;10.95;;
18499;SDS011;9379;52.134;11.576;2022-12-10T10:27:13;13.63;;;8.52;;
18499;SDS011;9379;52.134;11.576;2022-12-10T10:29:43;12.65;;;9.35;;
18499;SDS011;9379;52.134;11.576;2022-12-10T10:32:13;10.07;;;7.82;;
18499;SDS011;9379;52.134;11.576;2022-12-10T10:34:42;10.55;;;8.70;;
18499;SDS011;9379;52.134;11.576;2022-12-10T10:37:23;13.30;;;9.90;;
18499;SDS011;9379;52.134;11.576;2022-12-10T10:39:53;13.57;;;11.25;;
18499;SDS011;9379;52.134;11.576;2022-12-10T10:42:24;14.27;;;10.77;;
18499;SDS011;9379;52.134;11.576;2022-12-10T10:44:58;13.95;;;11.45;;
18499;SDS011;9379;52.134;11.576;2022-12-10T10:47:27;15.93;;;12.43;;
18499;SDS011;9379;52.134;11.576;2022-12-10T10:49:56;12.32;;;9.20;;
18499;SDS011;9379;52.134;11.576;2022-12-10T10:52:27;12.73;;;9.75;;
18499;SDS011;9379;52.134;11.576;2022-12-10T10:54:55;12.50;;;9.50;;
18499;SDS011;9379;52.134;11.576;2022-12-10T10:57:23;9.45;;;8.38;;
18499;SDS011;9379;52.134;11.576;2022-12-10T10:59:51;12.23;;;9.18;;
18499;SDS011;9379;52.134;11.576;2022-12-10T11:02:22;10.88;;;8.40;;
18499;SDS011;9379;52.134;11.576;2022-12-10T11:04:54;9.93;;;8.38;;
18499;SDS011;9379;52.134;11.576;2022-12-10T11:07:24;9.80;;;7.20;;
18499;SDS011;9379;52.134;11.576;2022-12-10T11:09:59;9.60;;;7.00;;
18499;SDS011;9379;52.134;11.576;2022-12-10T11:12:33;7.97;;;6.85;;
18499;SDS011;9379;52.134;11.576;2022-12-10T11:15:02;12.18;;;7.55;;
18499;SDS011;9379;52.134;11.576;2022-12-10T11:17:46;9.05;;;7.30;;
18499;SDS011;9379;52.134;11.576;2022-12-10T11:20:17;8.52;;;7.75;;
18499;SDS011;9379;52.134;11.576;2022-12-10T11:22:48;9.63;;;7.00;;
18499;SDS011;9379;52.134;11.576;2022-12-10T11:25:16;9.50;;;7.00;;
18499;SDS011;9379;52.134;11.576;2022-12-10T11:27:48;8.40;;;7.13;;
18499;SDS011;9379;52.134;11.576;2022-12-10T11:30:23;8.60;;;7.03;;
18499;SDS011;9379;52.134;11.576;2022-12-10T11:32:58;8.60;;;6.90;;
18499;SDS011;9379;52.134;11.576;2022-12-10T11:35:43;9.60;;;7.40;;
18499;SDS011;9379;52.134;11.576;2022-12-10T11:38:20;8.80;;;7.03;;
18499;SDS011;9379;52.134;11.576;2022-12-10T11:40:49;11.18;;;7.72;;
18499;SDS011;9379;52.134;11.576;2022-12-10T11:43:33;11.52;;;7.80;;
18499;SDS011;9379;52.134;11.576;2022-12-10T11:46:14;10.95;;;8.27;;
18499;SDS011;9379;52.134;11.576;2022-12-10T11:48:55;9.68;;;7.13;;
18499;SDS011;9379;52.134;11.576;2022-12-10T11:51:34;10.57;;;7.15;;
18499;SDS011;9379;52.134;11.576;2022-12-10T11:54:17;11.95;;;8.13;;
18499;SDS011;9379;52.134;11.576;2022-12-10T11:56:56;12.50;;;8.35;;
18499;SDS011;9379;52.134;11.576;2022-12-10T11:59:31;12.20;;;8.35;;
18499;SDS011;9379;52.134;11.576;2022-12-10T12:02:15;15.05;;;11.07;;
18499;SDS011;9379;52.134;11.576;2022-12-10T12:05:03;12.93;;;10.10;;
18499;SDS011;9379;52.134;11.576;2022-12-10T12:07:43;8.35;;;7.55;;
18499;SDS011;9379;52.134;11.576;2022-12-10T12:10:23;9.57;;;7.18;;
18499;SDS011;9379;52.134;11.576;2022-12-10T12:13:10;12.95;;;9.35;;
18499;SDS011;9379;52.134;11.576;2022-12-10T12:15:42;9.45;;;7.22;;
18499;SDS011;9379;52.134;11.576;2022-12-10T12:18:16;9.15;;;7.18;;
18499;SDS011;9379;52.134;11.576;2022-12-10T12:20:48;10.90;;;7.38;;
18499;SDS011;9379;52.134;11.576;2022-12-10T12:23:21;12.05;;;7.47;;
18499;SDS011;9379;52.134;11.576;2022-12-10T12:25:53;10.35;;;7.90;;
18499;SDS011;9379;52.134;11.576;2022-12-10T12:28:24;8.63;;;6.50;;
18499;SDS011;9379;52.134;11.576;2022-12-10T12:30:57;9.18;;;7.10;;
18499;SDS011;9379;52.134;11.576;2022-12-10T12:33:28;8.93;;;6.05;;
18499;SDS011;9379;52.134;11.576;2022-12-10T12:36:02;7.40;;;6.05;;
18499;SDS011;9379;52.134;11.576;2022-12-10T12:38:38;8.18;;;7.35;;
18499;SDS011;9379;52.134;11.576;2022-12-10T12:41:10;10.48;;;7.68;;
18499;SDS011;9379;52.134;11.576;2022-12-10T12:43:43;7.32;;;6.63;;
18499;SDS011;9379;52.134;11.576;2022-12-10T12:46:19;10.55;;;8.50;;
18499;SDS011;9379;52.134;11.576;2022-12-10T12:48:53;6.93;;;6.30;;
18499;SDS011;9379;52.134;11.576;2022-12-10T12:54:41;8.82;;;7.05;;
18499;SDS011;9379;52.134;11.576;2022-12-10T12:57:10;10.95;;;8.15;;
18499;SDS011;9379;52.134;11.576;2022-12-10T12:59:48;10.45;;;7.22;;
18499;SDS011;9379;52.134;11.576;2022-12-10T13:02:26;10.98;;;8.70;;
18499;SDS011;9379;52.134;11.576;2022-12-10T13:05:13;9.70;;;7.25;;
18499;SDS011;9379;52.134;11.576;2022-12-10T13:07:42;10.35;;;9.18;;
18499;SDS011;9379;52.134;11.576;2022-12-10T13:10:22;15.38;;;9.23;;
18499;SDS011;9379;52.134;11.576;2022-12-10T13:12:51;10.60;;;9.40;;
18499;SDS011;9379;52.134;11.576;2022-12-10T13:15:36;12.90;;;11.18;;
18499;SDS011;9379;52.134;11.576;2022-12-10T13:20:40;10.43;;;8.27;;
18499;SDS011;9379;52.134;11.576;2022-12-10T13:26:00;10.45;;;8.55;;
18499;SDS011;9379;52.134;11.576;2022-12-10T13:28:39;11.73;;;9.38;;
18499;SDS011;9379;52.134;11.576;2022-12-10T13:31:20;8.13;;;7.28;;
18499;SDS011;9379;52.134;11.576;2022-12-10T13:33:50;9.23;;;7.97;;
18499;SDS011;9379;52.134;11.576;2022-12-10T13:36:24;10.18;;;7.85;;
18499;SDS011;9379;52.134;11.576;2022-12-10T13:38:57;13.57;;;8.57;;
18499;SDS011;9379;52.134;11.576;2022-12-10T13:41:40;10.57;;;8.25;;
18499;SDS011;9379;52.134;11.576;2022-12-10T13:44:46;12.20;;;9.43;;
18499;SDS011;9379;52.134;11.576;2022-12-10T13:47:23;11.60;;;9.57;;
18499;SDS011;9379;52.134;11.576;2022-12-10T13:49:52;12.93;;;8.93;;
18499;SDS011;9379;52.134;11.576;2022-12-10T13:52:22;10.05;;;8.43;;
18499;SDS011;9379;52.134;11.576;2022-12-10T13:57:59;8.85;;;8.02;;
18499;SDS011;9379;52.134;11.576;2022-12-10T14:00:47;14.25;;;11.27;;
18499;SDS011;9379;52.134;11.576;2022-12-10T14:03:28;13.57;;;11.60;;
18499;SDS011;9379;52.134;11.576;2022-12-10T14:06:12;14.02;;;11.52;;
18499;SDS011;9379;52.134;11.576;2022-12-10T14:08:43;11.05;;;9.63;;
18499;SDS011;9379;52.134;11.576;2022-12-10T14:11:21;11.77;;;10.05;;
18499;SDS011;9379;52.134;11.576;2022-12-10T14:13:54;12.38;;;9.90;;
18499;SDS011;9379;52.134;11.576;2022-12-10T14:16:24;9.52;;;8.55;;
18499;SDS011;9379;52.134;11.576;2022-12-10T14:18:54;17.08;;;9.95;;
18499;SDS011;9379;52.134;11.576;2022-12-10T14:21:23;11.18;;;9.95;;
18499;SDS011;9379;52.134;11.576;2022-12-10T14:23:51;11.10;;;9.90;;
18499;SDS011;9379;52.134;11.576;2022-12-10T14:29:36;9.80;;;8.18;;
18499;SDS011;9379;52.134;11.576;2022-12-10T14:35:19;11.45;;;9.50;;
18499;SDS011;9379;52.134;11.576;2022-12-10T14:37:48;8.18;;;7.30;;
18499;SDS011;9379;52.134;11.576;2022-12-10T14:40:17;10.02;;;8.10;;
18499;SDS011;9379;52.134;11.576;2022-12-10T14:42:48;11.52;;;9.23;;
18499;SDS011;9379;52.134;11.576;2022-12-10T14:45:17;11.05;;;9.48;;
18499;SDS011;9379;52.134;11.576;2022-12-10T14:47:44;11.90;;;10.05;;
18499;SDS011;9379;52.134;11.576;2022-12-10T14:50:12;9.18;;;8.02;;
18499;SDS011;9379;52.134;11.576;2022-12-10T14:52:42;10.10;;;9.10;;
18499;SDS011;9379;52.134;11.576;2022-12-10T14:55:13;9.10;;;8.07;;
18499;SDS011;9379;52.134;11.576;2022-12-10T14:57:41;11.13;;;8.38;;
18499;SDS011;9379;52.134;11.576;2022-12-10T15:00:11;11.65;;;10.02;;
18499;SDS011;9379;52.134;11.576;2022-12-10T15:02:45;12.43;;;9.75;;
18499;SDS011;9379;52.134;11.576;2022-12-10T15:05:15;9.57;;;8.02;;
18499;SDS011;9379;52.134;11.576;2022-12-10T15:07:48;9.48;;;7.25;;
18499;SDS011;9379;52.134;11.576;2022-12-10T15:10:20;9.82;;;8.38;;